Time;durP1;ratioP1;P1;durP2;ratioP2;P2;SDS_P1;SDS_P2;PMS_P1;PMS_P2;Temp;Humidity;BMP_temperature;BMP_pressure;BME280_temperature;BME280_humidity;BME280_pressure;Samples;Min_cycle;Max_cycle;Signal;HPM_P1;HPM_P2
2023/04/17 00:00:24;;;;;;;25.80;18.92;;;9.30;99.90;;;;;;2060202;28;20045;-73
2023/04/17 00:01:25;;;;;;;25.75;19.05;;;9.30;99.90;;;;;;2078229;28;20369;-73
2023/04/17 00:02:28;;;;;;;22.63;17.85;;;9.30;99.90;;;;;;2090040;28;20065;-73
2023/04/17 00:03:30;;;;;;;25.48;19.05;;;9.30;99.90;;;;;;2091912;28;20036;-73
2023/04/17 00:04:31;;;;;;;25.95;18.95;;;9.30;99.90;;;;;;2087261;28;20372;-75
2023/04/17 00:05:32;;;;;;;23.73;18.00;;;9.30;99.90;;;;;;2081364;28;20033;-72
2023/04/17 00:06:33;;;;;;;24.73;18.55;;;9.30;99.90;;;;;;2077582;28;20116;-73
2023/04/17 00:07:40;;;;;;;24.08;18.50;;;9.30;99.90;;;;;;2080772;28;20032;-73
2023/04/17 00:08:42;;;;;;;26.27;19.45;;;9.30;99.90;;;;;;2090043;28;20467;-73
2023/04/17 00:09:42;;;;;;;25.40;19.27;;;9.30;99.90;;;;;;2083799;28;20020;-73
2023/04/17 00:10:43;;;;;;;26.27;19.58;;;9.30;99.90;;;;;;2089707;28;20111;-73
2023/04/17 00:11:44;;;;;;;24.83;18.73;;;9.30;99.90;;;;;;2081211;28;20029;-73
2023/04/17 00:12:45;;;;;;;24.92;19.02;;;9.40;99.90;;;;;;2082810;28;20035;-73
2023/04/17 00:13:45;;;;;;;24.48;19.10;;;9.40;99.90;;;;;;2078360;28;20025;-73
2023/04/17 00:14:46;;;;;;;26.92;19.17;;;9.40;99.90;;;;;;2077546;28;20052;-73
2023/04/17 00:15:46;;;;;;;23.17;18.05;;;9.30;99.90;;;;;;2080708;28;20336;-73
2023/04/17 00:16:47;;;;;;;22.05;17.45;;;9.40;99.90;;;;;;2086005;28;20093;-73
2023/04/17 00:17:47;;;;;;;24.33;18.45;;;9.40;99.90;;;;;;2072160;28;20588;-73
2023/04/17 00:18:48;;;;;;;23.15;17.55;;;9.40;99.90;;;;;;2080840;28;20581;-73
2023/04/17 00:19:49;;;;;;;23.70;17.90;;;9.40;99.90;;;;;;2081044;28;20114;-73
2023/04/17 00:20:49;;;;;;;23.08;17.38;;;9.40;99.90;;;;;;2081524;28;20033;-74
2023/04/17 00:21:50;;;;;;;21.63;16.67;;;9.40;99.90;;;;;;2083207;28;20040;-73
2023/04/17 00:22:50;;;;;;;22.23;17.48;;;9.40;99.90;;;;;;2072878;28;20067;-74
2023/04/17 00:23:51;;;;;;;25.00;18.77;;;9.40;99.90;;;;;;2072765;28;20076;-74
2023/04/17 00:24:51;;;;;;;25.10;19.33;;;9.40;99.90;;;;;;2089399;28;20036;-74
2023/04/17 00:25:52;;;;;;;23.27;18.48;;;9.40;99.90;;;;;;2087041;28;20226;-74
2023/04/17 00:26:52;;;;;;;24.08;19.15;;;9.40;99.90;;;;;;2092340;28;20032;-74
2023/04/17 00:27:53;;;;;;;23.88;18.00;;;9.40;99.90;;;;;;2088980;28;20029;-74
2023/04/17 00:28:55;;;;;;;21.75;17.80;;;9.40;99.90;;;;;;2080972;28;20025;-74
2023/04/17 00:29:55;;;;;;;24.90;18.08;;;9.50;99.90;;;;;;2081476;28;20043;-74
2023/04/17 00:30:57;;;;;;;24.23;18.65;;;9.50;99.90;;;;;;2086829;28;20025;-74
2023/04/17 00:31:59;;;;;;;21.77;16.92;;;9.50;99.90;;;;;;2086045;28;20041;-74
2023/04/17 00:32:59;;;;;;;21.65;16.65;;;9.50;99.90;;;;;;2089555;28;20344;-73
2023/04/17 00:34:00;;;;;;;23.27;18.42;;;9.50;99.90;;;;;;2080981;28;20325;-74
2023/04/17 00:35:01;;;;;;;22.00;17.75;;;9.50;99.90;;;;;;2085370;28;20514;-74
2023/04/17 00:36:02;;;;;;;22.88;16.80;;;9.50;99.90;;;;;;2083075;28;20486;-74
2023/04/17 00:37:02;;;;;;;22.45;17.33;;;9.50;99.90;;;;;;2078122;28;20033;-73
2023/04/17 00:38:03;;;;;;;21.73;17.52;;;9.50;99.90;;;;;;2080972;28;20142;-73
2023/04/17 00:39:04;;;;;;;21.73;17.20;;;9.60;99.90;;;;;;2091335;28;20398;-74
2023/04/17 00:40:05;;;;;;;21.80;17.23;;;9.60;99.90;;;;;;2087019;28;20087;-74
2023/04/17 00:41:06;;;;;;;22.38;16.80;;;9.60;99.90;;;;;;2079358;28;20120;-74
2023/04/17 00:42:07;;;;;;;20.10;15.93;;;9.60;99.90;;;;;;2099429;28;20032;-74
2023/04/17 00:43:07;;;;;;;20.63;16.98;;;9.60;99.90;;;;;;2099292;28;20040;-73
2023/04/17 00:44:08;;;;;;;20.85;16.77;;;9.60;99.90;;;;;;2093820;28;20033;-74
2023/04/17 00:45:10;;;;;;;20.83;16.30;;;9.60;99.90;;;;;;2091748;28;20040;-73
2023/04/17 00:46:11;;;;;;;20.42;15.88;;;9.60;99.90;;;;;;2091521;28;20031;-72
2023/04/17 00:47:12;;;;;;;19.33;15.30;;;9.60;99.90;;;;;;2091706;28;20082;-73
2023/04/17 00:48:15;;;;;;;19.25;15.98;;;9.60;99.90;;;;;;2084318;28;20087;-73
2023/04/17 00:49:16;;;;;;;19.00;15.60;;;9.60;99.90;;;;;;2083029;28;20038;-73
2023/04/17 00:50:17;;;;;;;20.10;15.32;;;9.60;99.90;;;;;;2082502;28;21033;-75
2023/04/17 00:51:18;;;;;;;19.52;16.02;;;9.50;99.90;;;;;;2075314;28;20076;-74
2023/04/17 00:52:28;;;;;;;19.23;15.52;;;9.50;99.90;;;;;;2089076;28;20028;-73
2023/04/17 00:53:36;;;;;;;19.25;15.38;;;9.50;99.90;;;;;;2082472;28;20025;-73
2023/04/17 00:54:37;;;;;;;18.27;14.75;;;9.50;99.90;;;;;;2083274;28;20028;-73
2023/04/17 00:55:39;;;;;;;18.95;15.45;;;9.50;99.90;;;;;;2096335;28;20283;-73
2023/04/17 00:56:42;;;;;;;17.98;14.43;;;9.50;99.90;;;;;;2088983;28;20089;-73
2023/04/17 00:57:43;;;;;;;18.80;15.02;;;9.50;99.90;;;;;;2082338;28;20087;-74
2023/04/17 00:58:45;;;;;;;17.92;15.07;;;9.50;99.90;;;;;;2080590;28;20442;-73
2023/04/17 00:59:47;;;;;;;17.10;14.52;;;9.60;99.90;;;;;;2071708;28;20531;-74
2023/04/17 01:00:48;;;;;;;19.33;15.68;;;9.60;99.90;;;;;;2066329;28;20042;-73
2023/04/17 01:01:48;;;;;;;17.65;14.50;;;9.60;99.90;;;;;;2075510;28;20553;-73
2023/04/17 01:02:49;;;;;;;17.80;14.68;;;9.50;99.90;;;;;;2073970;28;20033;-73
2023/04/17 01:03:50;;;;;;;17.38;14.15;;;9.50;99.90;;;;;;2074137;28;20041;-73
2023/04/17 01:04:51;;;;;;;18.25;14.63;;;9.50;99.90;;;;;;2085372;28;20082;-73
2023/04/17 01:05:51;;;;;;;16.65;13.50;;;9.50;99.90;;;;;;2091513;28;20027;-73
2023/04/17 01:06:52;;;;;;;18.25;15.00;;;9.50;99.90;;;;;;2084105;28;20036;-73
2023/04/17 01:07:54;;;;;;;17.73;14.15;;;9.50;99.90;;;;;;2085060;28;20385;-74
2023/04/17 01:08:55;;;;;;;16.45;13.45;;;9.50;99.90;;;;;;2088005;28;20029;-73
2023/04/17 01:09:56;;;;;;;16.83;14.07;;;9.50;99.90;;;;;;2070952;28;20029;-74
2023/04/17 01:10:56;;;;;;;17.05;13.80;;;9.50;99.90;;;;;;2073577;28;20556;-73
2023/04/17 01:12:19;;;;;;;16.58;13.57;;;9.50;99.90;;;;;;2074035;28;20049;-73
2023/04/17 01:13:20;;;;;;;16.10;13.27;;;9.50;99.90;;;;;;2077071;28;20033;-73
2023/04/17 01:14:21;;;;;;;15.45;13.05;;;9.50;99.90;;;;;;2086165;28;20427;-74
2023/04/17 01:15:21;;;;;;;15.27;13.07;;;9.50;99.90;;;;;;2092577;28;20028;-74
2023/04/17 01:16:22;;;;;;;15.70;13.40;;;9.50;99.90;;;;;;2074569;28;20041;-74
2023/04/17 01:17:27;;;;;;;15.38;12.68;;;9.50;99.90;;;;;;2083951;28;20029;-74
2023/04/17 01:18:27;;;;;;;14.75;12.43;;;9.50;99.90;;;;;;2093454;28;20024;-74
2023/04/17 01:19:29;;;;;;;17.85;12.93;;;9.50;99.90;;;;;;2082445;28;20495;-74
2023/04/17 01:20:30;;;;;;;16.20;13.05;;;9.50;99.90;;;;;;2088094;28;20111;-73
2023/04/17 01:21:31;;;;;;;16.00;13.30;;;9.50;99.90;;;;;;2087447;28;20124;-73
2023/04/17 01:22:32;;;;;;;14.30;11.93;;;9.50;99.90;;;;;;2079101;28;20118;-72
2023/04/17 01:23:43;;;;;;;14.48;11.77;;;9.50;99.90;;;;;;2082357;28;20638;-73
2023/04/17 01:24:44;;;;;;;14.77;11.70;;;9.50;99.90;;;;;;2081764;28;20401;-73
2023/04/17 01:25:45;;;;;;;14.57;11.05;;;9.50;99.90;;;;;;2073864;28;20118;-74
2023/04/17 01:26:47;;;;;;;13.30;11.13;;;9.50;99.90;;;;;;2077574;28;20568;-73
2023/04/17 01:27:48;;;;;;;13.88;11.90;;;9.50;99.90;;;;;;2082309;28;20487;-73
2023/04/17 01:28:54;;;;;;;12.48;10.65;;;9.50;99.90;;;;;;2068011;28;20590;-73
2023/04/17 01:29:55;;;;;;;12.15;10.85;;;9.50;99.90;;;;;;2075478;28;20026;-75
2023/04/17 01:30:55;;;;;;;12.82;11.02;;;9.50;99.90;;;;;;2091171;28;20038;-73
2023/04/17 01:31:56;;;;;;;12.32;10.43;;;9.50;99.90;;;;;;2074096;28;20582;-74
2023/04/17 01:32:57;;;;;;;13.07;10.98;;;9.50;99.90;;;;;;2076441;28;20400;-73
2023/04/17 01:33:59;;;;;;;12.02;10.35;;;9.50;99.90;;;;;;2083909;28;20051;-74
2023/04/17 01:35:01;;;;;;;13.07;10.50;;;9.50;99.90;;;;;;2080198;28;20079;-71
2023/04/17 01:36:02;;;;;;;10.70;9.30;;;9.50;99.90;;;;;;2086172;28;20029;-73
2023/04/17 01:37:03;;;;;;;11.23;9.40;;;9.50;99.90;;;;;;2092896;28;20112;-73
2023/04/17 01:38:03;;;;;;;10.20;8.77;;;9.50;99.90;;;;;;2091071;28;20704;-72
2023/04/17 01:39:04;;;;;;;9.75;8.57;;;9.50;99.90;;;;;;2082350;28;20463;-74
2023/04/17 01:40:06;;;;;;;9.43;8.43;;;9.50;99.90;;;;;;2077832;28;20631;-72
2023/04/17 01:41:10;;;;;;;9.82;8.65;;;9.50;99.90;;;;;;2081616;28;20035;-73
2023/04/17 01:42:11;;;;;;;11.05;8.60;;;9.50;99.90;;;;;;2074480;28;20018;-72
2023/04/17 01:43:12;;;;;;;9.63;8.45;;;9.50;99.90;;;;;;2072456;28;20037;-72
2023/04/17 01:44:12;;;;;;;9.90;8.50;;;9.50;99.90;;;;;;2080625;28;20162;-74
2023/04/17 01:45:13;;;;;;;9.98;8.30;;;9.50;99.90;;;;;;2088627;28;20115;-72
2023/04/17 01:46:14;;;;;;;9.32;8.07;;;9.50;99.90;;;;;;2077562;28;20029;-73
2023/04/17 01:47:14;;;;;;;10.15;8.80;;;9.50;99.90;;;;;;2081840;28;20053;-73
2023/04/17 01:48:15;;;;;;;8.77;7.88;;;9.50;99.90;;;;;;2082292;28;20055;-73
2023/04/17 01:49:16;;;;;;;8.85;7.80;;;9.50;99.90;;;;;;2084520;28;20035;-73
2023/04/17 01:50:17;;;;;;;9.23;7.45;;;9.50;99.90;;;;;;2082437;28;20024;-73
2023/04/17 01:51:17;;;;;;;8.80;7.78;;;9.50;99.90;;;;;;2082199;28;20033;-73
2023/04/17 01:52:18;;;;;;;9.55;8.00;;;9.50;99.90;;;;;;2082247;28;20036;-74
2023/04/17 01:53:18;;;;;;;8.73;7.82;;;9.50;99.90;;;;;;2084214;28;20028;-73
2023/04/17 01:54:20;;;;;;;8.45;7.55;;;9.40;99.90;;;;;;2082593;28;20584;-74
2023/04/17 01:55:20;;;;;;;9.02;7.90;;;9.40;99.90;;;;;;2090572;28;20048;-74
2023/04/17 01:56:21;;;;;;;8.93;7.95;;;9.40;99.90;;;;;;2081903;28;20037;-73
2023/04/17 01:57:22;;;;;;;9.48;8.10;;;9.40;99.90;;;;;;2081944;28;20013;-74
2023/04/17 01:58:23;;;;;;;8.02;7.22;;;9.40;99.90;;;;;;2075936;28;20080;-74
2023/04/17 01:59:24;;;;;;;9.25;8.02;;;9.40;99.90;;;;;;2081891;28;20311;-74
2023/04/17 02:00:26;;;;;;;9.57;7.68;;;9.40;99.90;;;;;;2090386;28;20100;-74
2023/04/17 02:01:27;;;;;;;8.48;7.10;;;9.40;99.90;;;;;;2090896;28;20140;-74
2023/04/17 02:02:28;;;;;;;8.10;7.15;;;9.40;99.90;;;;;;2090565;28;20522;-74
2023/04/17 02:03:30;;;;;;;8.13;7.30;;;9.40;99.90;;;;;;2092531;28;20025;-74
2023/04/17 02:04:31;;;;;;;7.82;7.03;;;9.30;99.90;;;;;;2083595;28;20518;-74
2023/04/17 02:05:31;;;;;;;8.13;7.32;;;9.40;99.90;;;;;;2086540;28;20049;-74
2023/04/17 02:06:32;;;;;;;8.13;7.05;;;9.40;99.90;;;;;;2089224;28;20554;-74
2023/04/17 02:07:33;;;;;;;7.75;6.95;;;9.40;99.90;;;;;;2081779;28;20025;-74
2023/04/17 02:08:34;;;;;;;8.07;7.13;;;9.40;99.90;;;;;;2083872;28;20080;-74
2023/04/17 02:09:37;;;;;;;7.65;6.85;;;9.40;99.90;;;;;;2068458;28;20049;-74
2023/04/17 02:10:42;;;;;;;8.45;7.07;;;9.40;99.90;;;;;;2078850;28;20111;-74
2023/04/17 02:11:42;;;;;;;8.20;7.40;;;9.40;99.90;;;;;;2073503;28;20408;-73
2023/04/17 02:12:43;;;;;;;7.97;7.13;;;9.40;99.90;;;;;;2065832;28;20033;-74
2023/04/17 02:13:43;;;;;;;7.22;6.53;;;9.40;99.90;;;;;;2087681;28;20036;-74
2023/04/17 02:14:44;;;;;;;7.68;6.85;;;9.30;99.90;;;;;;2073601;28;20496;-74
2023/04/17 02:15:45;;;;;;;7.55;6.78;;;9.40;99.90;;;;;;2074160;28;20029;-74
2023/04/17 02:16:47;;;;;;;7.60;6.80;;;9.40;99.90;;;;;;2081945;28;20036;-74
2023/04/17 02:17:47;;;;;;;7.80;7.00;;;9.40;99.90;;;;;;2075643;28;20065;-74
2023/04/17 02:18:49;;;;;;;7.88;7.05;;;9.40;99.90;;;;;;2082030;28;20032;-74
2023/04/17 02:19:49;;;;;;;8.43;7.32;;;9.40;99.90;;;;;;2073986;28;20078;-74
2023/04/17 02:20:50;;;;;;;9.52;7.93;;;9.50;99.90;;;;;;2073573;28;20096;-74
2023/04/17 02:21:51;;;;;;;8.27;7.18;;;9.40;99.90;;;;;;2082182;28;20040;-74
2023/04/17 02:22:51;;;;;;;8.55;7.50;;;9.40;99.90;;;;;;2092825;28;20033;-74
2023/04/17 02:23:52;;;;;;;7.93;7.13;;;9.50;99.90;;;;;;2086329;28;20033;-73
2023/04/17 02:24:53;;;;;;;9.48;8.15;;;9.50;99.90;;;;;;2085078;28;20067;-74
2023/04/17 02:25:53;;;;;;;9.63;8.20;;;9.50;99.90;;;;;;2083240;28;20025;-74
2023/04/17 02:26:55;;;;;;;9.77;8.68;;;9.50;99.90;;;;;;2082142;28;20041;-73
2023/04/17 02:27:56;;;;;;;11.23;9.32;;;9.50;99.90;;;;;;2090852;28;20139;-74
2023/04/17 02:28:56;;;;;;;10.95;9.23;;;9.50;99.90;;;;;;2089922;28;20032;-74
2023/04/17 02:29:57;;;;;;;10.27;8.70;;;9.50;99.90;;;;;;2092622;28;20057;-74
2023/04/17 02:30:58;;;;;;;10.20;9.10;;;9.50;99.90;;;;;;2081849;28;20051;-74
2023/04/17 02:31:58;;;;;;;9.93;8.43;;;9.50;99.90;;;;;;2081886;28;20120;-74
2023/04/17 02:32:59;;;;;;;11.90;10.25;;;9.50;99.90;;;;;;2092537;28;20274;-74
2023/04/17 02:34:00;;;;;;;12.30;9.35;;;9.50;99.90;;;;;;2087392;28;20044;-74
2023/04/17 02:35:01;;;;;;;10.82;9.27;;;9.50;99.90;;;;;;2081840;28;20505;-74
2023/04/17 02:36:05;;;;;;;9.23;8.23;;;9.50;99.90;;;;;;2081508;28;20029;-74
2023/04/17 02:37:11;;;;;;;11.18;9.02;;;9.50;99.90;;;;;;2081752;28;20021;-74
2023/04/17 02:38:12;;;;;;;9.98;8.00;;;9.50;99.90;;;;;;2081579;28;20124;-74
2023/04/17 02:39:14;;;;;;;9.60;8.30;;;9.60;99.90;;;;;;2083744;28;20583;-74
2023/04/17 02:40:15;;;;;;;13.35;9.23;;;9.50;99.90;;;;;;2081679;28;20112;-74
2023/04/17 02:41:16;;;;;;;10.32;9.02;;;9.60;99.90;;;;;;2081689;28;20047;-74
2023/04/17 02:42:17;;;;;;;12.18;9.82;;;9.50;99.90;;;;;;2081486;28;20024;-74
2023/04/17 02:43:18;;;;;;;10.80;9.35;;;9.50;99.90;;;;;;2075782;28;20040;-73
2023/04/17 02:44:19;;;;;;;11.32;8.80;;;9.50;99.90;;;;;;2080093;28;20033;-74
2023/04/17 02:45:19;;;;;;;10.77;9.68;;;9.50;99.90;;;;;;2073734;28;20109;-74
2023/04/17 02:46:20;;;;;;;9.60;8.60;;;9.50;99.90;;;;;;2081558;28;20423;-73
2023/04/17 02:47:21;;;;;;;9.88;8.77;;;9.50;99.90;;;;;;2072705;28;20026;-73
2023/04/17 02:48:22;;;;;;;8.93;8.02;;;9.50;99.90;;;;;;2074349;28;20029;-73
2023/04/17 02:49:22;;;;;;;9.35;8.35;;;9.50;99.90;;;;;;2079097;28;20465;-73
2023/04/17 02:50:23;;;;;;;10.23;8.95;;;9.50;99.90;;;;;;2081666;28;20115;-74
2023/04/17 02:51:44;;;;;;;9.90;8.63;;;9.50;99.90;;;;;;2083647;28;20032;-74
2023/04/17 02:52:44;;;;;;;9.85;8.40;;;9.50;99.90;;;;;;2073366;28;20036;-73
2023/04/17 02:53:45;;;;;;;10.93;9.45;;;9.50;99.90;;;;;;2073381;28;20559;-74
2023/04/17 02:54:46;;;;;;;11.07;8.70;;;9.50;99.90;;;;;;2081636;28;20494;-74
2023/04/17 02:55:47;;;;;;;9.82;8.63;;;9.50;99.90;;;;;;2073133;28;20030;-74
2023/04/17 02:56:50;;;;;;;10.00;8.63;;;9.50;99.90;;;;;;2075568;28;20021;-74
2023/04/17 02:57:51;;;;;;;10.48;9.07;;;9.50;99.90;;;;;;2078523;28;20108;-73
2023/04/17 02:58:52;;;;;;;10.80;9.25;;;9.50;99.90;;;;;;2081813;28;20063;-73
2023/04/17 02:59:52;;;;;;;10.80;8.70;;;9.50;99.90;;;;;;2093530;28;20680;-73
2023/04/17 03:01:00;;;;;;;9.40;8.40;;;9.50;99.90;;;;;;2083480;28;20480;-73
2023/04/17 03:02:02;;;;;;;9.85;8.43;;;9.50;99.90;;;;;;2079963;28;20115;-73
2023/04/17 03:03:03;;;;;;;9.95;8.93;;;9.50;99.90;;;;;;2074008;28;20108;-73
2023/04/17 03:04:04;;;;;;;11.93;9.98;;;9.50;99.90;;;;;;2074499;28;20028;-74
2023/04/17 03:05:05;;;;;;;10.77;8.90;;;9.50;99.90;;;;;;2071182;28;20303;-73
2023/04/17 03:06:08;;;;;;;10.13;8.90;;;9.50;99.90;;;;;;2085870;28;20036;-74
2023/04/17 03:07:09;;;;;;;10.95;9.77;;;9.50;99.90;;;;;;2077027;28;20071;-68
2023/04/17 03:08:10;;;;;;;11.50;10.10;;;9.50;99.90;;;;;;2072758;28;20502;-69
2023/04/17 03:09:21;;;;;;;13.35;10.85;;;9.50;99.90;;;;;;2071947;28;20091;-69
2023/04/17 03:10:21;;;;;;;12.55;10.85;;;9.50;99.90;;;;;;2066815;28;20025;-69
2023/04/17 03:11:23;;;;;;;12.68;10.38;;;9.50;99.90;;;;;;2059962;28;20689;-69
2023/04/17 03:12:24;;;;;;;13.10;10.52;;;9.50;99.90;;;;;;2068490;28;20502;-68
2023/04/17 03:13:25;;;;;;;12.77;11.20;;;9.50;99.90;;;;;;2076645;28;20120;-67
2023/04/17 03:14:26;;;;;;;12.13;10.65;;;9.50;99.90;;;;;;2071145;28;20030;-69
2023/04/17 03:15:27;;;;;;;12.65;10.85;;;9.50;99.90;;;;;;2073379;28;20027;-68
2023/04/17 03:16:27;;;;;;;13.75;11.30;;;9.50;99.90;;;;;;2082021;28;20037;-68
2023/04/17 03:17:31;;;;;;;15.05;11.68;;;9.50;99.90;;;;;;2081443;28;20025;-75
2023/04/17 03:18:37;;;;;;;14.73;11.32;;;9.50;99.90;;;;;;2081711;28;20420;-71
2023/04/17 03:19:38;;;;;;;12.02;10.43;;;9.50;99.90;;;;;;2077050;28;20030;-74
2023/04/17 03:20:39;;;;;;;15.20;11.82;;;9.50;99.90;;;;;;2073401;28;20464;-73
2023/04/17 03:21:40;;;;;;;12.02;9.57;;;9.50;99.90;;;;;;2073362;28;20026;-75
2023/04/17 03:22:41;;;;;;;10.77;8.95;;;9.50;99.90;;;;;;2073516;28;20026;-75
2023/04/17 03:23:42;;;;;;;10.07;8.80;;;9.40;99.90;;;;;;2081707;28;20188;-75
2023/04/17 03:24:43;;;;;;;10.98;9.25;;;9.40;99.90;;;;;;2092467;28;20034;-75
2023/04/17 03:25:44;;;;;;;9.80;8.60;;;9.40;99.90;;;;;;2081592;28;20488;-75
2023/04/17 03:26:44;;;;;;;10.18;8.52;;;9.40;99.90;;;;;;2072812;28;20665;-75
2023/04/17 03:27:51;;;;;;;9.55;8.38;;;9.40;99.90;;;;;;2081598;28;20029;-74
2023/04/17 03:28:53;;;;;;;9.50;7.85;;;9.40;99.90;;;;;;2065221;28;20607;-75
2023/04/17 03:29:57;;;;;;;9.70;8.38;;;9.40;99.90;;;;;;2073206;28;20128;-73
2023/04/17 03:31:00;;;;;;;8.95;7.55;;;9.50;99.90;;;;;;2085756;28;20159;-73
2023/04/17 03:32:00;;;;;;;9.50;8.13;;;9.50;99.90;;;;;;2088754;28;20032;-73
2023/04/17 03:33:01;;;;;;;9.70;8.25;;;9.50;99.90;;;;;;2080910;28;20395;-73
2023/04/17 03:34:04;;;;;;;8.95;8.02;;;9.50;99.90;;;;;;2078357;28;20036;-74
2023/04/17 03:35:05;;;;;;;9.30;8.30;;;9.50;99.90;;;;;;2073239;28;20033;-71
2023/04/17 03:36:07;;;;;;;11.73;9.25;;;9.50;99.90;;;;;;2073166;28;20041;-68
2023/04/17 03:37:09;;;;;;;11.07;9.00;;;9.50;99.90;;;;;;2079197;28;20084;-79
2023/04/17 03:38:10;;;;;;;10.60;9.10;;;9.40;99.90;;;;;;2073184;28;20030;-74
2023/04/17 03:39:11;;;;;;;9.68;8.30;;;9.40;99.90;;;;;;2081320;28;20112;-73
2023/04/17 03:40:12;;;;;;;9.32;7.80;;;9.40;99.90;;;;;;2080893;28;20021;-69
2023/04/17 03:41:12;;;;;;;9.80;8.05;;;9.40;99.90;;;;;;2083305;28;20037;-69
2023/04/17 03:42:13;;;;;;;9.43;7.65;;;9.40;99.90;;;;;;2073039;28;20034;-69
2023/04/17 03:43:14;;;;;;;9.07;7.78;;;9.40;99.90;;;;;;2081177;28;20029;-70
2023/04/17 03:44:16;;;;;;;8.40;7.40;;;9.40;99.90;;;;;;2081295;28;20490;-69
2023/04/17 03:45:18;;;;;;;10.32;8.63;;;9.40;99.90;;;;;;2081475;28;20078;-69
2023/04/17 03:46:19;;;;;;;9.30;7.53;;;9.40;99.90;;;;;;2081008;28;20082;-69
2023/04/17 03:47:19;;;;;;;8.93;7.72;;;9.30;99.90;;;;;;2073479;28;20029;-69
2023/04/17 03:48:20;;;;;;;9.70;7.70;;;9.30;99.90;;;;;;2079538;28;20677;-69
2023/04/17 03:49:22;;;;;;;8.88;7.68;;;9.30;99.90;;;;;;2081230;28;20341;-69
2023/04/17 03:50:23;;;;;;;8.85;7.43;;;9.30;99.90;;;;;;2079843;28;20013;-69
2023/04/17 03:51:30;;;;;;;9.70;7.55;;;9.30;99.90;;;;;;2070993;28;20095;-69
2023/04/17 03:52:35;;;;;;;9.38;7.70;;;9.30;99.90;;;;;;2073603;28;20033;-69
2023/04/17 03:53:37;;;;;;;9.10;7.65;;;9.30;99.90;;;;;;2075038;28;20461;-69
2023/04/17 03:54:42;;;;;;;8.82;7.50;;;9.30;99.90;;;;;;2072984;28;20450;-69
2023/04/17 03:55:42;;;;;;;8.68;7.50;;;9.20;99.90;;;;;;2072714;28;20527;-69
2023/04/17 03:56:50;;;;;;;8.68;7.25;;;9.30;99.90;;;;;;2071434;28;20136;-69
2023/04/17 03:57:52;;;;;;;8.63;7.28;;;9.30;99.90;;;;;;2070615;28;20022;-69
2023/04/17 03:58:53;;;;;;;8.30;7.30;;;9.30;99.90;;;;;;2078727;28;20029;-70
2023/04/17 03:59:54;;;;;;;10.25;7.43;;;9.20;99.90;;;;;;2080939;28;20025;-69
2023/04/17 04:00:57;;;;;;;8.35;6.90;;;9.20;99.90;;;;;;2081168;28;20029;-69
2023/04/17 04:02:00;;;;;;;8.07;7.00;;;9.20;99.90;;;;;;2069569;28;20467;-69
2023/04/17 04:03:03;;;;;;;9.18;7.53;;;9.20;99.90;;;;;;2061920;28;20489;-69
2023/04/17 04:04:10;;;;;;;9.45;7.93;;;9.20;99.90;;;;;;2073794;28;20033;-70
2023/04/17 04:05:12;;;;;;;9.02;7.63;;;9.30;99.90;;;;;;2072908;28;20308;-70
2023/04/17 04:06:12;;;;;;;8.85;7.95;;;9.30;99.90;;;;;;2072630;28;20049;-71
2023/04/17 04:07:13;;;;;;;11.43;8.75;;;9.30;99.90;;;;;;2074857;28;20025;-69
2023/04/17 04:08:14;;;;;;;9.25;8.25;;;9.30;99.90;;;;;;2080876;28;20079;-69
2023/04/17 04:09:20;;;;;;;11.45;9.35;;;9.30;99.90;;;;;;2076470;28;20577;-68
2023/04/17 04:10:21;;;;;;;13.15;9.80;;;9.30;99.90;;;;;;2072247;28;20029;-71
2023/04/17 04:11:22;;;;;;;11.70;10.23;;;9.30;99.90;;;;;;2083211;28;20076;-71
2023/04/17 04:12:23;;;;;;;11.93;10.25;;;9.30;99.90;;;;;;2081047;28;20541;-69
2023/04/17 04:13:23;;;;;;;12.00;9.90;;;9.30;99.90;;;;;;2081075;28;20037;-69
2023/04/17 04:14:30;;;;;;;12.90;10.43;;;9.30;99.90;;;;;;2082162;28;20473;-70
2023/04/17 04:15:31;;;;;;;12.40;9.73;;;9.20;99.90;;;;;;2074470;28;20076;-70
2023/04/17 04:16:35;;;;;;;12.13;9.88;;;9.20;99.90;;;;;;2074255;28;20045;-70
2023/04/17 04:17:44;;;;;;;13.15;10.52;;;9.20;99.90;;;;;;2073519;28;20029;-70
2023/04/17 04:18:44;;;;;;;12.35;10.30;;;9.20;99.90;;;;;;2086102;28;20050;-68
2023/04/17 04:19:46;;;;;;;11.98;9.95;;;9.20;99.90;;;;;;2089089;28;20025;-69
2023/04/17 04:20:47;;;;;;;11.50;9.60;;;9.20;99.90;;;;;;2082484;28;20404;-70
2023/04/17 04:21:52;;;;;;;12.15;9.93;;;9.20;99.90;;;;;;2074495;28;20466;-70
2023/04/17 04:22:58;;;;;;;12.93;10.05;;;9.20;99.90;;;;;;2067200;28;20056;-70
2023/04/17 04:23:59;;;;;;;13.05;10.07;;;9.20;99.90;;;;;;2076977;28;20472;-70
2023/04/17 04:25:00;;;;;;;12.20;9.93;;;9.20;99.90;;;;;;2082682;28;20051;-70
2023/04/17 04:26:15;;;;;;;13.88;9.93;;;9.20;99.90;;;;;;2081825;28;20039;-70
2023/04/17 04:27:22;;;;;;;12.45;9.20;;;9.10;99.90;;;;;;2081120;28;20025;-70
2023/04/17 04:28:26;;;;;;;12.02;9.50;;;9.10;99.90;;;;;;2075490;28;20092;-70
2023/04/17 04:29:27;;;;;;;13.27;9.52;;;9.20;99.90;;;;;;2082544;28;20036;-70
2023/04/17 04:30:37;;;;;;;12.57;9.25;;;9.20;99.90;;;;;;2082160;28;20096;-70
2023/04/17 04:31:45;;;;;;;13.57;9.93;;;9.20;99.90;;;;;;2075470;28;20017;-70
2023/04/17 04:32:47;;;;;;;12.15;9.70;;;9.20;99.90;;;;;;2076317;28;20086;-73
2023/04/17 04:33:53;;;;;;;13.05;10.13;;;9.20;99.90;;;;;;2084613;28;20071;-73
2023/04/17 04:34:57;;;;;;;12.63;9.65;;;9.20;99.90;;;;;;2075079;28;20033;-71
2023/04/17 04:36:00;;;;;;;11.98;10.00;;;9.20;99.90;;;;;;2074406;28;20382;-69
2023/04/17 04:37:02;;;;;;;13.63;10.70;;;9.20;99.90;;;;;;2069012;28;20041;-69
2023/04/17 04:38:15;;;;;;;13.52;10.27;;;9.20;99.90;;;;;;2073811;28;20505;-69
2023/04/17 04:39:20;;;;;;;13.45;10.65;;;9.20;99.90;;;;;;2072222;28;20112;-70
2023/04/17 04:40:23;;;;;;;13.05;10.80;;;9.20;99.90;;;;;;2082776;28;20117;-69
2023/04/17 04:41:25;;;;;;;15.02;11.18;;;9.20;99.90;;;;;;2082519;28;20082;-69
2023/04/17 04:42:28;;;;;;;13.55;10.20;;;9.20;99.90;;;;;;2082655;28;20066;-68
2023/04/17 04:43:41;;;;;;;13.38;10.15;;;9.20;99.90;;;;;;2082646;28;20029;-68
2023/04/17 04:44:44;;;;;;;13.13;9.70;;;9.20;99.90;;;;;;2074460;28;20297;-68
2023/04/17 04:45:46;;;;;;;11.45;9.68;;;9.30;99.90;;;;;;2074286;28;20516;-70
2023/04/17 04:46:47;;;;;;;11.48;9.38;;;9.20;99.90;;;;;;2084305;28;20044;-69
2023/04/17 04:47:47;;;;;;;11.52;9.07;;;9.30;99.90;;;;;;2082641;28;20088;-69
2023/04/17 04:48:48;;;;;;;10.15;7.75;;;9.30;99.90;;;;;;2088003;28;20021;-69
2023/04/17 04:49:48;;;;;;;9.77;7.50;;;9.30;99.90;;;;;;2082466;28;20039;-69
2023/04/17 04:50:52;;;;;;;7.60;6.32;;;9.30;99.90;;;;;;2076870;28;20021;-68
2023/04/17 04:51:53;;;;;;;6.55;5.70;;;9.30;99.90;;;;;;2074255;28;20022;-68
2023/04/17 04:52:59;;;;;;;7.80;5.57;;;9.30;99.90;;;;;;2072774;28;20048;-68
2023/04/17 04:54:16;;;;;;;8.18;6.05;;;9.30;99.90;;;;;;2071670;28;20017;-68
2023/04/17 04:55:25;;;;;;;7.10;5.60;;;9.20;99.90;;;;;;2077862;28;20503;-68
2023/04/17 04:56:28;;;;;;;6.78;5.30;;;9.30;99.90;;;;;;2064213;28;20512;-70
2023/04/17 04:57:28;;;;;;;4.93;3.80;;;9.30;99.90;;;;;;2064599;28;20362;-70
2023/04/17 04:58:33;;;;;;;4.05;3.60;;;9.30;99.90;;;;;;2083460;28;20037;-71
2023/04/17 04:59:35;;;;;;;3.20;2.90;;;9.30;99.90;;;;;;2071891;28;20085;-71
2023/04/17 05:01:00;;;;;;;2.83;2.63;;;9.30;99.90;;;;;;2075930;28;20047;-71
2023/04/17 05:02:09;;;;;;;3.17;2.70;;;9.30;99.90;;;;;;2078534;28;20116;-72
2023/04/17 05:03:09;;;;;;;3.22;2.92;;;9.30;99.90;;;;;;2087063;28;20778;-72
2023/04/17 05:04:10;;;;;;;3.08;2.58;;;9.20;99.90;;;;;;2090872;28;20090;-73
2023/04/17 05:05:11;;;;;;;2.70;2.50;;;9.20;99.90;;;;;;2080783;28;20295;-71
2023/04/17 05:06:15;;;;;;;3.08;2.78;;;9.20;99.90;;;;;;2084256;28;20025;-71
2023/04/17 05:07:21;;;;;;;3.97;3.22;;;9.20;99.90;;;;;;2075871;28;20033;-72
2023/04/17 05:08:21;;;;;;;2.97;2.63;;;9.20;99.90;;;;;;2077094;28;20037;-72
2023/04/17 05:09:32;;;;;;;3.33;2.58;;;9.10;99.90;;;;;;2075154;28;20071;-72
2023/04/17 05:10:33;;;;;;;3.10;2.80;;;9.00;99.90;;;;;;2084101;28;20032;-73
2023/04/17 05:11:37;;;;;;;4.10;2.83;;;9.00;99.90;;;;;;2071620;28;20104;-67
2023/04/17 05:12:37;;;;;;;3.72;3.13;;;9.00;99.90;;;;;;2089895;28;20407;-70
2023/04/17 05:13:41;;;;;;;3.20;2.90;;;9.00;99.90;;;;;;2079553;28;20133;-70
2023/04/17 05:14:48;;;;;;;3.30;3.00;;;9.00;99.90;;;;;;2074973;28;20041;-70
2023/04/17 05:15:50;;;;;;;3.60;3.03;;;9.00;99.90;;;;;;2081674;28;20033;-70
2023/04/17 05:16:54;;;;;;;3.38;3.08;;;9.00;99.90;;;;;;2085571;28;20020;-70
2023/04/17 05:17:55;;;;;;;4.97;3.58;;;9.00;99.90;;;;;;2084530;28;22407;-69
2023/04/17 05:18:57;;;;;;;3.85;3.50;;;9.00;99.90;;;;;;2087141;28;20098;-70
2023/04/17 05:20:17;;;;;;;;;;;9.00;99.90;;;;;;2086021;28;20041;-69
2023/04/17 05:21:23;;;;;;;4.38;3.72;;;9.00;99.90;;;;;;2078541;28;20384;-70
2023/04/17 05:22:26;;;;;;;4.30;3.67;;;9.00;99.90;;;;;;2085226;28;20127;-69
2023/04/17 05:23:37;;;;;;;4.30;3.90;;;9.00;99.90;;;;;;2066797;28;20046;-70
2023/04/17 05:24:39;;;;;;;4.72;3.70;;;9.00;99.90;;;;;;2078722;28;20357;-70